createdAt,value
2018-06-13T00:01:46.471Z,85.00
2018-06-13T00:04:15.472Z,85.20
2018-06-13T00:06:45.395Z,84.80
2018-06-13T00:09:14.454Z,84.80
2018-06-13T00:11:43.444Z,85.20
2018-06-13T00:14:12.480Z,85.50
2018-06-13T00:16:41.485Z,85.90
2018-06-13T00:19:10.515Z,85.50
2018-06-13T00:21:40.449Z,85.30
2018-06-13T00:24:09.484Z,85.80
2018-06-13T00:26:38.478Z,86.10
2018-06-13T00:29:08.400Z,86.00
2018-06-13T00:31:37.415Z,86.50
2018-06-13T00:34:06.491Z,87.70
2018-06-13T00:36:35.506Z,88.70
2018-06-13T00:39:07.028Z,89.20
2018-06-13T00:41:36.963Z,90.00
2018-06-13T00:44:06.019Z,89.00
2018-06-13T00:46:35.100Z,89.30
2018-06-13T00:49:06.028Z,89.90
2018-06-13T00:51:35.038Z,89.30
2018-06-13T00:54:05.088Z,89.20
2018-06-13T00:56:34.097Z,90.00
2018-06-13T00:59:03.973Z,90.00
2018-06-13T01:01:32.962Z,90.00
2018-06-13T01:04:01.976Z,89.60
2018-06-13T01:06:30.967Z,89.10
2018-06-13T01:08:59.992Z,88.50
2018-06-13T01:11:30.555Z,88.60
2018-06-13T01:13:59.572Z,88.80
2018-06-13T01:16:28.592Z,87.40
2018-06-13T01:18:58.264Z,86.90
2018-06-13T01:21:27.319Z,87.00
2018-06-13T01:23:56.425Z,87.40
2018-06-13T01:26:25.416Z,88.00
2018-06-13T01:28:54.440Z,87.40
2018-06-13T01:31:23.465Z,88.00
2018-06-13T01:33:52.571Z,88.20
2018-06-13T01:36:27.685Z,88.50
2018-06-13T01:38:57.475Z,88.70
2018-06-13T01:41:26.499Z,88.90
2018-06-13T01:43:55.520Z,88.40
2018-06-13T01:46:24.609Z,88.20
2018-06-13T01:48:57.267Z,88.90
2018-06-13T01:51:26.312Z,88.80
2018-06-13T01:53:55.335Z,88.70
2018-06-13T01:56:24.352Z,88.40
2018-06-13T01:58:53.384Z,89.10
2018-06-13T02:01:22.399Z,88.90
2018-06-13T02:03:52.883Z,88.70
2018-06-13T02:06:22.399Z,88.70
2018-06-13T02:08:51.443Z,88.40
2018-06-13T02:11:20.441Z,88.30
2018-06-13T02:13:49.448Z,88.50
2018-06-13T02:16:18.871Z,88.60
2018-06-13T02:18:48.544Z,88.70
2018-06-13T02:21:18.887Z,89.70
2018-06-13T02:23:49.424Z,89.60
2018-06-13T02:26:18.413Z,90.00
2018-06-13T02:28:47.386Z,90.20
2018-06-13T02:31:16.412Z,90.60
2018-06-13T02:33:45.427Z,90.60
2018-06-13T02:36:14.410Z,90.70
2018-06-13T02:38:43.401Z,90.80
2018-06-13T02:41:12.407Z,90.70
2018-06-13T02:43:41.417Z,90.50
2018-06-13T02:46:10.461Z,90.40
2018-06-13T02:48:40.671Z,90.60
2018-06-13T02:51:09.667Z,90.60
2018-06-13T02:53:38.648Z,90.20
2018-06-13T02:56:08.140Z,90.00
2018-06-13T02:58:37.132Z,89.10
2018-06-13T03:01:06.128Z,88.70
2018-06-13T03:03:35.112Z,88.80
2018-06-13T03:08:32.782Z,89.00
2018-06-13T03:13:30.476Z,89.30
2018-06-13T03:15:59.520Z,89.00
2018-06-13T03:18:28.513Z,88.80
2018-06-13T03:20:57.614Z,89.20
2018-06-13T03:23:27.088Z,89.70
2018-06-13T03:25:56.148Z,89.90
2018-06-13T03:28:25.129Z,89.80
2018-06-13T03:30:54.123Z,90.10
2018-06-13T03:33:23.093Z,89.80
2018-06-13T03:35:52.108Z,89.30
2018-06-13T03:38:22.064Z,89.60
2018-06-13T03:40:51.081Z,89.00
2018-06-13T03:43:20.088Z,89.60
2018-06-13T03:45:50.202Z,88.80
2018-06-13T03:48:19.211Z,89.40
2018-06-13T03:50:49.123Z,89.50
2018-06-13T03:53:18.142Z,88.80
2018-06-13T03:55:47.241Z,88.10
2018-06-13T03:58:16.231Z,87.90
2018-06-13T04:00:45.315Z,88.00
2018-06-13T04:03:16.127Z,87.30
2018-06-13T04:05:45.184Z,87.00
2018-06-13T04:08:14.203Z,87.50
2018-06-13T04:10:43.399Z,87.30
2018-06-13T04:13:12.401Z,87.00
2018-06-13T04:15:41.450Z,87.40
2018-06-13T04:18:12.950Z,87.10
2018-06-13T04:20:42.072Z,87.30
2018-06-13T04:23:11.175Z,88.50
2018-06-13T04:25:47.282Z,88.10
2018-06-13T04:28:16.517Z,87.60
2018-06-13T04:30:45.528Z,87.60
2018-06-13T04:33:15.079Z,87.20
2018-06-13T04:35:44.133Z,86.90
2018-06-13T04:38:14.695Z,87.90
2018-06-13T04:40:43.712Z,87.40
2018-06-13T04:43:14.519Z,87.40
2018-06-13T04:45:44.313Z,87.10
2018-06-13T04:48:13.319Z,87.20
2018-06-13T04:50:42.326Z,87.10
2018-06-13T04:53:12.105Z,86.90
2018-06-13T04:55:41.399Z,86.60
2018-06-13T04:58:10.402Z,86.80
2018-06-13T05:00:39.631Z,86.60
2018-06-13T05:03:09.645Z,87.10
2018-06-13T05:05:38.693Z,86.40
2018-06-13T05:08:07.862Z,86.10
2018-06-13T05:10:38.171Z,86.10
2018-06-13T05:13:08.095Z,86.80
2018-06-13T05:15:37.384Z,87.00
2018-06-13T05:18:06.370Z,86.10
2018-06-13T05:20:35.391Z,85.70
2018-06-13T05:23:04.529Z,85.80
2018-06-13T05:25:33.508Z,86.20
2018-06-13T05:28:02.541Z,86.10
2018-06-13T05:30:31.943Z,85.80
2018-06-13T05:33:00.957Z,86.10
2018-06-13T05:35:29.948Z,86.50
2018-06-13T05:38:00.577Z,86.40
2018-06-13T05:40:29.561Z,86.50
2018-06-13T05:42:58.559Z,86.30
2018-06-13T05:45:27.669Z,86.60
2018-06-13T05:47:56.685Z,86.60
2018-06-13T05:50:25.694Z,86.90
2018-06-13T05:52:55.134Z,86.60
2018-06-13T05:55:24.114Z,87.00
2018-06-13T05:57:56.892Z,87.10
2018-06-13T06:00:25.879Z,86.70
2018-06-13T06:02:54.931Z,87.00
2018-06-13T06:05:23.955Z,87.10
2018-06-13T06:07:53.165Z,87.40
2018-06-13T06:10:22.210Z,87.80
2018-06-13T06:12:51.231Z,87.40
2018-06-13T06:15:20.296Z,87.40
2018-06-13T06:17:49.313Z,87.10
2018-06-13T06:20:18.325Z,87.30
2018-06-13T06:22:47.360Z,87.40
2018-06-13T06:25:16.467Z,87.30
2018-06-13T06:30:14.584Z,87.30
2018-06-13T06:32:43.647Z,87.50
2018-06-13T06:35:12.720Z,87.30
2018-06-13T06:37:41.753Z,87.70
2018-06-13T06:40:13.377Z,87.90
2018-06-13T06:42:43.400Z,87.90
2018-06-13T06:45:14.295Z,88.00
2018-06-13T06:47:45.473Z,88.50
2018-06-13T06:50:14.556Z,88.80
2018-06-13T06:52:44.146Z,89.00
2018-06-13T06:55:13.230Z,89.20
2018-06-13T06:57:42.267Z,90.10
2018-06-13T07:00:11.833Z,90.00
2018-06-13T07:02:43.469Z,89.50
2018-06-13T07:05:13.330Z,89.30
2018-06-13T07:07:43.784Z,88.30
2018-06-13T07:10:12.828Z,88.50
2018-06-13T07:12:41.906Z,88.50
2018-06-13T07:15:12.240Z,87.30
2018-06-13T07:17:41.376Z,86.50
2018-06-13T07:20:10.426Z,86.30
2018-06-13T07:22:39.485Z,86.90
2018-06-13T07:25:08.509Z,87.20
2018-06-13T07:27:37.971Z,85.90
2018-06-13T07:30:07.121Z,86.70
2018-06-13T07:32:39.160Z,86.20
2018-06-13T07:35:08.242Z,86.30
2018-06-13T07:37:37.413Z,86.50
2018-06-13T07:40:06.531Z,86.90
2018-06-13T07:42:36.260Z,86.90
2018-06-13T07:45:05.378Z,86.40
2018-06-13T07:47:34.476Z,86.90
2018-06-13T07:50:03.537Z,86.10
2018-06-13T07:52:32.583Z,85.70
2018-06-13T07:55:01.609Z,85.50
2018-06-13T07:57:30.662Z,83.50
2018-06-13T07:59:59.741Z,83.60
2018-06-13T08:02:28.900Z,84.60
2018-06-13T08:04:57.928Z,84.70
2018-06-13T08:07:27.398Z,84.20
2018-06-13T08:09:57.924Z,84.90
2018-06-13T08:12:27.025Z,84.30
2018-06-13T08:14:56.638Z,83.40
2018-06-13T08:19:54.334Z,83.70
2018-06-13T08:22:23.375Z,85.50
2018-06-13T08:24:54.278Z,85.50
2018-06-13T08:27:23.647Z,84.60
2018-06-13T08:29:52.702Z,85.20
2018-06-13T08:32:22.479Z,84.90
2018-06-13T08:34:51.523Z,83.90
2018-06-13T08:37:20.577Z,84.60
2018-06-13T08:39:49.686Z,84.70
2018-06-13T08:42:18.824Z,85.20
2018-06-13T08:44:48.366Z,83.90
2018-06-13T08:47:17.407Z,84.40
2018-06-13T08:49:46.446Z,83.50
2018-06-13T08:52:15.480Z,82.20
2018-06-13T08:54:44.516Z,82.70
2018-06-13T08:57:13.601Z,81.70
2018-06-13T08:59:42.672Z,81.90
2018-06-13T09:02:12.687Z,82.30
2018-06-13T09:04:42.559Z,82.10
2018-06-13T09:07:11.623Z,82.80
2018-06-13T09:09:41.569Z,82.30
2018-06-13T09:12:14.885Z,83.00
2018-06-13T09:14:43.960Z,82.30
2018-06-13T09:17:13.659Z,83.20
2018-06-13T09:19:42.698Z,84.00
2018-06-13T09:22:11.706Z,84.60
2018-06-13T09:24:40.747Z,84.90
2018-06-13T09:27:09.790Z,84.60
2018-06-13T09:29:38.834Z,83.90
2018-06-13T09:32:08.099Z,84.40
2018-06-13T09:34:37.197Z,86.60
2018-06-13T09:37:06.219Z,88.20
2018-06-13T09:39:35.766Z,88.70
2018-06-13T09:42:04.797Z,89.40
2018-06-13T09:44:33.864Z,89.20
2018-06-13T09:47:06.903Z,89.20
2018-06-13T09:49:32.127Z,87.70
2018-06-13T09:52:01.989Z,86.90
2018-06-13T09:54:31.033Z,86.10
2018-06-13T09:57:00.048Z,85.60
2018-06-13T09:59:36.127Z,85.00
2018-06-13T10:02:10.632Z,84.90
2018-06-13T10:04:39.732Z,85.00
2018-06-13T10:07:09.402Z,84.80
2018-06-13T10:09:38.541Z,83.50
2018-06-13T10:12:07.687Z,82.60
2018-06-13T10:14:36.768Z,81.50
2018-06-13T10:17:05.836Z,81.00
2018-06-13T10:24:33.269Z,80.10
2018-06-13T10:27:06.499Z,80.90
2018-06-13T10:29:35.568Z,81.70
2018-06-13T10:32:04.618Z,79.90
2018-06-13T10:34:33.684Z,79.50
2018-06-13T10:37:02.722Z,79.30
2018-06-13T10:39:31.777Z,79.30
2018-06-13T10:42:01.611Z,79.60
2018-06-13T10:44:30.651Z,80.00
2018-06-13T10:46:59.680Z,81.00
2018-06-13T10:49:28.741Z,83.20
2018-06-13T10:51:57.761Z,84.40
2018-06-13T10:54:26.808Z,85.70
2018-06-13T10:56:55.837Z,85.10
2018-06-13T10:59:27.388Z,85.00
2018-06-13T11:01:57.356Z,84.30
2018-06-13T11:04:26.429Z,83.90
2018-06-13T11:06:55.464Z,83.40
2018-06-13T11:09:24.531Z,83.60
2018-06-13T11:11:54.146Z,83.50
2018-06-13T11:14:24.058Z,84.50
2018-06-13T11:16:53.092Z,84.70
2018-06-13T11:19:22.162Z,84.30
2018-06-13T11:21:51.189Z,84.10
2018-06-13T11:24:20.217Z,83.80
2018-06-13T11:26:49.237Z,83.10
2018-06-13T11:29:18.239Z,83.40
2018-06-13T11:31:47.290Z,82.90
2018-06-13T11:34:16.313Z,82.60
2018-06-13T11:36:45.333Z,82.70
2018-06-13T11:39:14.302Z,82.30
2018-06-13T11:41:44.046Z,82.60
2018-06-13T11:44:13.053Z,83.10
2018-06-13T11:46:43.192Z,83.40
2018-06-13T11:49:12.854Z,83.40
2018-06-13T11:51:41.867Z,83.70
2018-06-13T11:54:10.851Z,83.10
2018-06-13T11:56:39.855Z,83.40
2018-06-13T11:59:08.872Z,83.70
2018-06-13T12:01:37.945Z,85.30
2018-06-13T12:04:07.004Z,85.70
2018-06-13T12:06:36.108Z,85.60
2018-06-13T12:09:06.836Z,85.50
2018-06-13T12:11:36.012Z,85.60
2018-06-13T12:14:05.089Z,84.90
2018-06-13T12:16:34.233Z,85.30
2018-06-13T12:19:04.065Z,84.80
2018-06-13T12:21:35.177Z,83.50
2018-06-13T12:24:04.161Z,82.70
2018-06-13T12:26:33.212Z,81.70
2018-06-13T12:29:02.237Z,81.10
2018-06-13T12:31:31.249Z,80.70
2018-06-13T12:34:00.299Z,80.50
2018-06-13T12:36:29.325Z,81.20
2018-06-13T12:38:59.864Z,80.70
2018-06-13T12:41:28.893Z,80.70
2018-06-13T12:43:58.745Z,81.10
2018-06-13T12:46:27.777Z,81.10
2018-06-13T12:48:57.151Z,80.10
2018-06-13T12:51:26.284Z,80.50
2018-06-13T12:53:55.313Z,79.90
2018-06-13T12:56:25.390Z,80.40
2018-06-13T12:58:54.457Z,80.80
2018-06-13T13:01:23.469Z,80.60
2018-06-13T13:03:52.533Z,80.00
2018-06-13T13:06:21.737Z,79.60
2018-06-13T13:08:50.737Z,80.00
2018-06-13T13:11:19.851Z,79.20
2018-06-13T13:13:49.573Z,79.50
2018-06-13T13:16:18.841Z,79.90
2018-06-13T13:18:47.941Z,79.90
2018-06-13T13:21:16.962Z,79.10
2018-06-13T13:23:46.828Z,80.60
2018-06-13T13:26:18.709Z,79.40
2018-06-13T13:28:48.620Z,79.60
2018-06-13T13:31:17.655Z,79.90
2018-06-13T13:33:51.618Z,80.20
2018-06-13T13:36:21.404Z,79.90
2018-06-13T13:48:48.980Z,98.50
2018-06-13T13:51:18.428Z,77.30
2018-06-13T13:53:47.468Z,75.70
2018-06-13T13:56:16.537Z,76.40
2018-06-13T13:58:51.038Z,77.30
2018-06-13T14:01:32.466Z,77.50
2018-06-13T14:04:03.709Z,77.60
2018-06-13T14:06:38.796Z,78.00
2018-06-13T14:09:10.081Z,76.60
2018-06-13T14:11:39.595Z,77.30
2018-06-13T14:14:11.961Z,77.20
2018-06-13T14:16:41.055Z,78.80
2018-06-13T14:19:11.231Z,79.30
2018-06-13T14:21:40.246Z,78.50
2018-06-13T14:24:09.236Z,78.80
2018-06-13T14:26:38.280Z,79.30
2018-06-13T14:29:07.321Z,78.30
2018-06-13T14:31:36.927Z,78.40
2018-06-13T14:34:05.927Z,78.40
2018-06-13T14:36:34.906Z,78.00
2018-06-13T14:39:08.071Z,79.30
2018-06-13T14:41:37.063Z,77.30
2018-06-13T14:44:06.558Z,78.40
2018-06-13T14:46:35.629Z,77.60
2018-06-13T14:49:04.729Z,76.60
2018-06-13T14:51:34.861Z,77.60
2018-06-13T14:54:04.022Z,77.60
2018-06-13T14:56:33.780Z,76.90
2018-06-13T14:59:03.193Z,77.60
2018-06-13T15:01:33.810Z,78.40
2018-06-13T15:04:02.849Z,77.10
2018-06-13T15:06:31.877Z,78.00
2018-06-13T15:09:00.896Z,77.50
2018-06-13T15:13:58.575Z,77.10
2018-06-13T15:16:34.066Z,77.30
2018-06-13T15:19:03.939Z,77.30
2018-06-13T15:21:34.886Z,78.00
2018-06-13T15:24:03.900Z,77.80
2018-06-13T15:26:32.903Z,77.60
2018-06-13T15:29:05.022Z,78.00
2018-06-13T15:31:39.749Z,78.00
2018-06-13T15:34:08.757Z,77.70
2018-06-13T15:36:37.893Z,77.70
2018-06-13T15:39:09.405Z,78.40
2018-06-13T15:41:38.379Z,78.90
2018-06-13T15:44:08.300Z,78.50
2018-06-13T15:46:37.258Z,77.80
2018-06-13T15:49:06.324Z,77.70
2018-06-13T15:51:36.272Z,77.60
2018-06-13T15:54:05.328Z,76.10
2018-06-13T15:56:34.316Z,75.60
2018-06-13T15:59:04.405Z,75.60
2018-06-13T16:01:33.852Z,76.20
2018-06-13T16:04:06.570Z,76.70
2018-06-13T16:06:35.615Z,77.60
2018-06-13T16:09:08.442Z,76.90
2018-06-13T16:11:37.451Z,76.60
2018-06-13T16:14:06.762Z,76.30
2018-06-13T16:16:35.893Z,76.30
2018-06-13T16:19:05.299Z,77.70
2018-06-13T16:21:34.332Z,77.10
2018-06-13T16:24:03.381Z,78.50
2018-06-13T16:26:32.409Z,77.10
2018-06-13T16:29:01.464Z,76.50
2018-06-13T16:31:30.488Z,77.00
2018-06-13T16:33:59.536Z,77.60
2018-06-13T16:36:28.568Z,76.40
2018-06-13T16:38:57.628Z,76.70
2018-06-13T16:41:26.694Z,77.10
2018-06-13T16:43:56.524Z,76.90
2018-06-13T16:46:25.527Z,77.00
2018-06-13T16:48:54.577Z,76.30
2018-06-13T16:51:34.972Z,76.60
2018-06-13T16:54:10.623Z,77.20
2018-06-13T16:56:40.009Z,78.50
2018-06-13T16:59:09.480Z,76.90
2018-06-13T17:01:39.780Z,77.40
2018-06-13T17:04:09.524Z,77.10
2018-06-13T17:06:38.565Z,77.40
2018-06-13T17:09:07.935Z,77.90
2018-06-13T17:11:37.121Z,78.20
2018-06-13T17:14:06.182Z,78.80
2018-06-13T17:16:35.296Z,78.60
2018-06-13T17:19:05.703Z,77.50
2018-06-13T17:21:34.786Z,77.70
2018-06-13T17:24:03.853Z,77.70
2018-06-13T17:26:32.974Z,77.80
2018-06-13T17:29:02.994Z,77.90
2018-06-13T17:31:32.041Z,78.30
2018-06-13T17:34:01.103Z,78.40
2018-06-13T17:36:33.467Z,78.50
2018-06-13T17:39:02.580Z,78.80
2018-06-13T17:41:31.642Z,78.90
2018-06-13T17:44:00.683Z,80.20
2018-06-13T17:46:29.713Z,78.80
2018-06-13T17:49:00.388Z,79.30
2018-06-13T17:51:29.874Z,79.20
2018-06-13T17:53:58.966Z,78.80
2018-06-13T17:56:28.814Z,79.40
2018-06-13T17:58:57.859Z,79.80
2018-06-13T18:01:28.204Z,79.10
2018-06-13T18:03:57.241Z,79.30
2018-06-13T18:06:27.330Z,80.60
2018-06-13T18:08:57.558Z,80.60
2018-06-13T18:11:26.607Z,79.10
2018-06-13T18:13:56.750Z,78.90
2018-06-13T18:16:25.779Z,79.00
2018-06-13T18:18:55.864Z,78.90
2018-06-13T18:21:24.890Z,80.20
2018-06-13T18:23:53.924Z,79.60
2018-06-13T18:26:22.922Z,79.80
2018-06-13T18:28:52.001Z,80.40
2018-06-13T18:31:21.027Z,80.60
2018-06-13T18:33:50.072Z,80.70
2018-06-13T18:36:19.069Z,80.70
2018-06-13T18:38:48.063Z,80.70
2018-06-13T18:41:17.158Z,81.40
2018-06-13T18:43:46.213Z,81.40
2018-06-13T18:46:15.244Z,80.90
2018-06-13T18:48:44.240Z,81.30
2018-06-13T18:51:14.218Z,81.20
2018-06-13T18:53:43.529Z,81.10
2018-06-13T18:56:13.053Z,81.40
2018-06-13T18:58:42.072Z,81.50
2018-06-13T19:01:11.074Z,81.60
2018-06-13T19:03:40.145Z,82.00
2018-06-13T19:06:09.164Z,81.20
2018-06-13T19:08:38.549Z,80.90
2018-06-13T19:11:07.567Z,81.10
2018-06-13T19:13:36.598Z,81.00
2018-06-13T19:16:05.676Z,81.00
2018-06-13T19:18:35.264Z,80.70
2018-06-13T19:21:05.122Z,80.70
2018-06-13T19:23:41.588Z,80.60
2018-06-13T19:26:11.702Z,80.60
2018-06-13T19:28:40.691Z,80.90
2018-06-13T19:31:09.702Z,80.80
2018-06-13T19:33:38.699Z,81.10
2018-06-13T19:36:07.916Z,81.80
2018-06-13T19:38:36.887Z,81.10
2018-06-13T19:41:06.709Z,81.40
2018-06-13T19:43:39.365Z,81.30
2018-06-13T19:46:09.617Z,81.20
2018-06-13T19:51:13.368Z,81.30
2018-06-13T19:53:47.879Z,82.10
2018-06-13T19:56:20.753Z,82.90
2018-06-13T19:58:49.772Z,83.40
2018-06-13T20:01:18.797Z,84.10
2018-06-13T20:03:55.669Z,84.50
2018-06-13T20:06:26.204Z,84.80
2018-06-13T20:08:55.510Z,85.10
2018-06-13T20:11:24.596Z,85.60
2018-06-13T20:13:59.198Z,84.90
2018-06-13T20:16:44.947Z,85.10
2018-06-13T20:19:19.227Z,85.20
2018-06-13T20:21:48.245Z,85.80
2018-06-13T20:24:22.831Z,85.70
2018-06-13T20:26:57.222Z,85.50
2018-06-13T20:29:31.628Z,85.70
2018-06-13T20:32:00.682Z,85.10
2018-06-13T20:34:29.664Z,85.80
2018-06-13T20:36:58.688Z,85.50
2018-06-13T20:39:27.681Z,85.50
2018-06-13T20:41:56.715Z,85.70
2018-06-13T20:44:25.740Z,85.70
2018-06-13T20:46:54.749Z,86.40
2018-06-13T20:49:24.279Z,86.80
2018-06-13T20:51:53.953Z,86.70
2018-06-13T20:54:22.955Z,86.30
2018-06-13T20:56:52.008Z,86.50
2018-06-13T20:59:21.016Z,86.80
2018-06-13T21:01:50.027Z,87.00
2018-06-13T21:04:19.020Z,86.90
2018-06-13T21:06:48.033Z,87.00
2018-06-13T21:09:17.020Z,87.10
2018-06-13T21:11:46.816Z,87.90
2018-06-13T21:14:15.834Z,88.40
2018-06-13T21:16:44.889Z,88.80
2018-06-13T21:19:18.865Z,88.30
2018-06-13T21:21:47.875Z,88.40
2018-06-13T21:24:17.228Z,88.80
2018-06-13T21:26:46.258Z,88.40
2018-06-13T21:29:15.819Z,87.40
2018-06-13T21:31:44.851Z,87.40
2018-06-13T21:34:13.841Z,87.90
2018-06-13T21:36:42.819Z,89.90
2018-06-13T21:39:14.673Z,89.80
2018-06-13T21:41:44.292Z,89.20
2018-06-13T21:44:13.283Z,89.00
2018-06-13T21:46:42.268Z,89.30
2018-06-13T21:49:11.788Z,90.50
2018-06-13T21:51:43.312Z,90.70
2018-06-13T21:54:12.333Z,91.20
2018-06-13T21:56:41.332Z,92.20
2018-06-13T21:59:10.964Z,91.60
2018-06-13T22:01:40.044Z,91.20
2018-06-13T22:04:09.061Z,90.70
2018-06-13T22:06:38.532Z,90.50
2018-06-13T22:09:09.181Z,90.10
2018-06-13T22:11:43.585Z,89.60
2018-06-13T22:14:12.595Z,89.40
2018-06-13T22:16:42.716Z,88.80
2018-06-13T22:19:11.788Z,89.20
2018-06-13T22:21:40.784Z,89.20
2018-06-13T22:24:10.114Z,88.40
2018-06-13T22:26:39.236Z,88.20
2018-06-13T22:29:09.126Z,88.50
2018-06-13T22:31:38.148Z,90.10
2018-06-13T22:34:07.713Z,90.20
2018-06-13T22:36:36.832Z,90.10
2018-06-13T22:39:08.544Z,89.60
2018-06-13T22:41:37.527Z,89.30
2018-06-13T22:44:07.757Z,89.20
2018-06-13T22:46:37.276Z,88.50
2018-06-13T22:49:06.398Z,88.40
2018-06-13T22:51:35.424Z,87.80
2018-06-13T22:54:04.543Z,87.70
2018-06-13T22:56:33.536Z,88.40
2018-06-13T22:59:02.540Z,89.00
2018-06-13T23:01:31.516Z,90.50
2018-06-13T23:04:00.936Z,90.40
2018-06-13T23:06:30.527Z,90.50
2018-06-13T23:08:59.555Z,90.50
2018-06-13T23:11:28.537Z,90.00
2018-06-13T23:13:57.528Z,90.00
2018-06-13T23:16:27.192Z,89.70
2018-06-13T23:18:57.394Z,89.60
2018-06-13T23:23:55.016Z,88.70
2018-06-13T23:26:24.019Z,87.40
2018-06-13T23:28:53.035Z,86.60
2018-06-13T23:31:22.051Z,87.50
2018-06-13T23:33:54.746Z,88.00
2018-06-13T23:36:24.256Z,88.20
2018-06-13T23:38:53.381Z,88.60
2018-06-13T23:41:22.409Z,88.00
2018-06-13T23:43:51.408Z,88.10
2018-06-13T23:46:20.403Z,88.80
2018-06-13T23:48:49.456Z,90.00
2018-06-13T23:51:18.880Z,89.60
2018-06-13T23:53:47.925Z,90.40
2018-06-13T23:56:17.633Z,90.60
2018-06-13T23:58:46.621Z,90.90
